Time;durP1;ratioP1;P1;durP2;ratioP2;P2;SDS_P1;SDS_P2;PMS_P1;PMS_P2;Temp;Humidity;BMP_temperature;BMP_pressure;BME280_temperature;BME280_humidity;BME280_pressure;Samples;Min_cycle;Max_cycle;Signal;HPM_P1;HPM_P2
2024/02/13 00:00:12;;;;;;;1.17;1.00;;;;;;;4.03;100.00;92039.94;5090067;28;20383;-77
2024/02/13 00:02:40;;;;;;;1.13;1.02;;;;;;;4.40;92.82;92036.34;5088384;28;20028;-76
2024/02/13 00:05:09;;;;;;;1.02;0.95;;;;;;;4.42;97.14;92046.44;5092099;28;20398;-77
2024/02/13 00:07:36;;;;;;;2.30;1.60;;;;;;;4.40;99.13;92048.53;5075096;28;20384;-77
2024/02/13 00:10:02;;;;;;;2.80;1.58;;;;;;;4.40;100.00;92054.47;5095733;28;20040;-77
2024/02/13 00:12:28;;;;;;;2.03;1.40;;;;;;;4.25;100.00;92047.44;5081981;28;20032;-77
2024/02/13 00:14:55;;;;;;;3.20;1.70;;;;;;;4.18;100.00;92062.47;5076283;28;20039;-76
2024/02/13 00:17:23;;;;;;;2.75;1.73;;;;;;;4.01;100.00;92072.28;5101241;28;20036;-76
2024/02/13 00:19:50;;;;;;;3.05;1.40;;;;;;;3.88;100.00;92061.38;5099364;28;20023;-76
2024/02/13 00:22:16;;;;;;;3.17;1.60;;;;;;;3.84;100.00;92070.69;5058675;28;20040;-77
2024/02/13 00:24:43;;;;;;;3.35;1.85;;;;;;;3.75;100.00;92077.38;5075005;28;20020;-77
2024/02/13 00:27:09;;;;;;;2.97;1.77;;;;;;;3.54;100.00;92059.19;5107077;28;20036;-77
2024/02/13 00:29:35;;;;;;;3.05;1.88;;;;;;;3.54;100.00;92087.66;5086858;28;20042;-77
2024/02/13 00:32:00;;;;;;;1.58;1.25;;;;;;;3.41;100.00;92075.19;5094070;28;20036;-77
2024/02/13 00:34:26;;;;;;;2.13;1.45;;;;;;;3.38;100.00;92093.81;5092181;28;20118;-77
2024/02/13 00:36:52;;;;;;;2.35;1.50;;;;;;;3.33;100.00;92093.75;5070036;28;20039;-77
2024/02/13 00:39:18;;;;;;;2.17;1.40;;;;;;;3.27;100.00;92097.38;5104767;28;20039;-78
2024/02/13 00:41:44;;;;;;;1.55;1.17;;;;;;;3.30;100.00;92091.69;5088797;28;20044;-77
2024/02/13 00:44:11;;;;;;;0.80;0.80;;;;;;;3.34;100.00;92087.56;5090537;28;20069;-78
2024/02/13 00:46:37;;;;;;;1.38;1.00;;;;;;;3.48;100.00;92093.06;5085051;28;20039;-78
2024/02/13 00:49:03;;;;;;;1.05;0.95;;;;;;;3.61;100.00;92097.78;5104947;28;20023;-77
2024/02/13 00:51:30;;;;;;;1.13;0.90;;;;;;;3.61;100.00;92077.06;5099088;28;20057;-78
2024/02/13 00:53:56;;;;;;;0.93;0.93;;;;;;;3.65;98.61;92093.66;5102571;28;20034;-78
2024/02/13 00:56:22;;;;;;;1.10;1.00;;;;;;;3.76;96.73;92102.25;5103744;28;20031;-78
2024/02/13 00:58:47;;;;;;;1.20;1.00;;;;;;;3.67;99.77;92103.75;5093999;28;20038;-78
2024/02/13 01:01:14;;;;;;;1.15;1.02;;;;;;;3.63;100.00;92100.13;5077620;28;20100;-78
2024/02/13 01:03:40;;;;;;;0.95;0.90;;;;;;;3.63;100.00;92118.25;5085570;28;20063;-78
2024/02/13 01:06:07;;;;;;;1.90;1.35;;;;;;;3.59;99.35;92123.13;5107168;28;20078;-78
2024/02/13 01:08:37;;;;;;;1.25;1.00;;;;;;;3.71;93.48;92123.69;5099099;28;20066;-77
2024/02/13 01:11:03;;;;;;;0.80;0.80;;;;;;;3.81;91.84;92122.97;5105864;28;20384;-78
2024/02/13 01:13:29;;;;;;;1.25;1.00;;;;;;;3.82;91.98;92134.88;5085708;28;20022;-78
2024/02/13 01:15:55;;;;;;;0.90;0.90;;;;;;;3.87;90.06;92132.34;5081819;28;20055;-78
2024/02/13 01:18:22;;;;;;;0.85;0.80;;;;;;;3.92;89.23;92134.94;5081615;28;20032;-78
2024/02/13 01:20:48;;;;;;;0.80;0.80;;;;;;;3.94;90.54;92132.88;5107894;28;20141;-78
2024/02/13 01:23:14;;;;;;;0.80;0.80;;;;;;;3.94;90.39;92138.06;5091082;28;20020;-78
2024/02/13 01:25:39;;;;;;;0.90;0.90;;;;;;;3.95;89.88;92144.78;5077313;28;20587;-78
2024/02/13 01:28:07;;;;;;;1.00;0.90;;;;;;;3.97;88.64;92149.72;5085643;28;20032;-78
2024/02/13 01:30:34;;;;;;;2.50;0.80;;;;;;;4.00;87.21;92145.84;5108685;28;20043;-78
2024/02/13 01:33:00;;;;;;;1.05;1.00;;;;;;;4.07;84.99;92146.38;5085109;28;20499;-78
2024/02/13 01:35:25;;;;;;;0.93;0.82;;;;;;;4.11;84.96;92148.19;5105864;28;20051;-78
2024/02/13 01:37:51;;;;;;;1.02;0.93;;;;;;;4.15;83.94;92146.66;5109065;28;20045;-78
2024/02/13 01:40:17;;;;;;;0.90;0.90;;;;;;;4.15;82.03;92145.91;5088882;28;20043;-78
2024/02/13 01:42:48;;;;;;;0.88;0.80;;;;;;;4.24;80.98;92157.31;5099949;28;20483;-77
2024/02/13 01:45:14;;;;;;;1.85;0.80;;;;;;;4.38;76.49;92149.84;5097689;28;20040;-77
2024/02/13 01:47:42;;;;;;;0.88;0.75;;;;;;;4.50;76.11;92157.38;5090445;28;20043;-78
2024/02/13 01:50:17;;;;;;;0.90;0.90;;;;;;;4.52;77.27;92163.84;5089432;28;20450;-78
2024/02/13 01:52:45;;;;;;;0.70;0.70;;;;;;;4.51;77.34;92162.31;5090949;28;20032;-77
2024/02/13 01:55:13;;;;;;;0.75;0.75;;;;;;;4.61;73.47;92155.59;5104336;28;20031;-78
2024/02/13 01:57:40;;;;;;;0.90;0.75;;;;;;;4.75;70.97;92167.81;5095778;28;20036;-78
2024/02/13 02:00:13;;;;;;;2.45;0.80;;;;;;;4.76;71.55;92171.94;5101148;28;20084;-78
2024/02/13 02:02:46;;;;;;;0.88;0.88;;;;;;;4.78;72.18;92177.66;5089862;28;20058;-78
2024/02/13 02:05:13;;;;;;;0.95;0.90;;;;;;;4.74;71.80;92176.59;5097355;28;20031;-78
2024/02/13 02:07:43;;;;;;;1.35;0.90;;;;;;;4.70;72.27;92188.53;5055335;28;20100;-78
2024/02/13 02:10:09;;;;;;;1.63;1.05;;;;;;;4.65;70.97;92183.34;5081075;28;20066;-78
2024/02/13 02:12:41;;;;;;;0.70;0.70;;;;;;;4.66;70.70;92194.47;5105653;28;20023;-78
2024/02/13 02:15:10;;;;;;;1.00;0.90;;;;;;;4.59;71.39;92195.53;5096220;28;20036;-78
2024/02/13 02:17:39;;;;;;;1.13;0.90;;;;;;;4.60;70.72;92193.69;5085581;28;20039;-78
2024/02/13 02:20:08;;;;;;;1.10;0.85;;;;;;;4.50;71.10;92191.06;5100925;28;20036;-78
2024/02/13 02:22:33;;;;;;;0.70;0.70;;;;;;;4.58;69.16;92200.94;5088000;28;20562;-78
2024/02/13 02:24:59;;;;;;;1.00;0.70;;;;;;;4.61;69.11;92204.84;5110232;28;20030;-78
2024/02/13 02:27:25;;;;;;;2.67;0.90;;;;;;;4.62;67.63;92209.00;5104626;28;20066;-78
2024/02/13 02:29:50;;;;;;;0.75;0.70;;;;;;;4.70;66.66;92211.84;5082322;28;20083;-78
2024/02/13 02:32:16;;;;;;;0.90;0.90;;;;;;;4.66;67.77;92212.63;5102049;28;20100;-78
2024/02/13 02:34:41;;;;;;;1.85;0.80;;;;;;;4.69;66.85;92215.50;5104036;28;20040;-78
2024/02/13 02:37:07;;;;;;;0.80;0.80;;;;;;;4.64;66.83;92215.50;5094357;28;20137;-77
2024/02/13 02:39:32;;;;;;;0.77;0.77;;;;;;;4.76;65.48;92228.22;5098016;28;20097;-78
2024/02/13 02:41:58;;;;;;;0.82;0.70;;;;;;;4.70;66.94;92229.22;5104044;28;20133;-78
2024/02/13 02:44:24;;;;;;;0.88;0.77;;;;;;;4.68;66.51;92228.72;5078611;28;20040;-78
2024/02/13 02:46:49;;;;;;;1.00;0.93;;;;;;;4.86;65.24;92224.84;5086356;28;20305;-77
2024/02/13 02:49:17;;;;;;;0.70;0.70;;;;;;;4.86;63.22;92217.84;5106930;28;20039;-77
2024/02/13 02:51:43;;;;;;;0.80;0.80;;;;;;;4.81;65.73;92228.22;5048624;28;20040;-77
2024/02/13 02:54:09;;;;;;;1.58;0.80;;;;;;;4.73;65.71;92226.16;5103571;28;20555;-79
2024/02/13 02:56:37;;;;;;;1.00;0.90;;;;;;;4.68;65.82;92229.47;5080680;28;20023;-77
2024/02/13 02:59:03;;;;;;;0.90;0.90;;;;;;;4.73;64.53;92236.53;5100357;28;20047;-77
2024/02/13 03:01:29;;;;;;;1.75;0.88;;;;;;;4.75;64.64;92239.59;5097449;28;20038;-77
2024/02/13 03:03:56;;;;;;;0.80;0.80;;;;;;;4.74;65.60;92243.25;5092130;28;20111;-77
2024/02/13 03:06:22;;;;;;;0.70;0.70;;;;;;;4.62;65.69;92230.53;5102705;28;20085;-77
2024/02/13 03:08:49;;;;;;;0.93;0.80;;;;;;;4.66;65.70;92239.34;5102052;28;20450;-77
2024/02/13 03:11:15;;;;;;;1.05;0.85;;;;;;;4.77;64.13;92242.72;5085608;28;20445;-77
2024/02/13 03:13:40;;;;;;;2.30;0.90;;;;;;;4.71;64.81;92244.53;5102635;28;20043;-78
2024/02/13 03:16:06;;;;;;;0.60;0.60;;;;;;;4.68;65.73;92245.03;5109767;28;20036;-78
2024/02/13 03:18:32;;;;;;;0.70;0.70;;;;;;;4.62;65.70;92240.88;5104989;28;20036;-78
2024/02/13 03:20:58;;;;;;;0.90;0.70;;;;;;;4.62;64.24;92245.31;5091794;28;20081;-78
2024/02/13 03:23:24;;;;;;;0.80;0.80;;;;;;;4.68;63.78;92252.81;5083185;28;20032;-77
2024/02/13 03:25:49;;;;;;;1.13;0.90;;;;;;;4.87;62.41;92252.38;5067341;28;20093;-77
2024/02/13 03:28:15;;;;;;;2.60;0.80;;;;;;;4.86;62.84;92250.78;5080447;28;20040;-77
2024/02/13 03:30:40;;;;;;;1.08;0.90;;;;;;;4.83;61.19;92246.91;5103194;28;20089;-77
2024/02/13 03:33:06;;;;;;;0.90;0.88;;;;;;;4.79;62.30;92257.00;5080106;28;20040;-77
2024/02/13 03:35:32;;;;;;;0.98;0.90;;;;;;;4.81;61.26;92261.94;5079511;28;20047;-77
2024/02/13 03:37:58;;;;;;;1.30;0.90;;;;;;;4.79;61.85;92257.00;5110019;28;20499;-78
2024/02/13 03:40:23;;;;;;;0.88;0.80;;;;;;;4.88;61.79;92259.09;5096845;28;20437;-78
2024/02/13 03:42:49;;;;;;;0.73;0.73;;;;;;;4.98;60.42;92266.91;5084886;28;20082;-78
2024/02/13 03:45:15;;;;;;;0.68;0.68;;;;;;;4.87;61.72;92268.69;5065761;28;20495;-76
2024/02/13 03:47:40;;;;;;;0.88;0.80;;;;;;;4.81;62.10;92264.53;5093631;28;20040;-78
2024/02/13 03:50:07;;;;;;;1.38;1.00;;;;;;;4.78;60.80;92255.44;5102157;28;20027;-77
2024/02/13 03:52:35;;;;;;;0.90;0.90;;;;;;;4.86;61.21;92272.31;5103787;28;20078;-77
2024/02/13 03:55:04;;;;;;;1.83;1.00;;;;;;;4.76;62.35;92269.72;5106589;28;20464;-77
2024/02/13 03:57:30;;;;;;;1.00;0.93;;;;;;;4.71;61.84;92270.47;5109188;28;20031;-78
2024/02/13 03:59:56;;;;;;;0.70;0.70;;;;;;;4.69;61.73;92272.53;5093228;28;20487;-77
2024/02/13 04:02:22;;;;;;;0.80;0.80;;;;;;;4.72;62.06;92285.00;5105367;28;20363;-77
2024/02/13 04:04:47;;;;;;;0.93;0.70;;;;;;;4.89;60.05;92289.97;5107448;28;20379;-78
2024/02/13 04:07:13;;;;;;;0.88;0.80;;;;;;;4.90;60.82;92296.72;5086367;28;20240;-78
2024/02/13 04:09:38;;;;;;;0.80;0.80;;;;;;;4.80;61.53;92300.06;5082594;28;20028;-79
2024/02/13 04:12:09;;;;;;;0.80;0.80;;;;;;;4.76;62.05;92299.00;5106714;28;20088;-78
2024/02/13 04:14:37;;;;;;;1.05;0.82;;;;;;;4.79;61.91;92300.31;5096953;28;20040;-78
2024/02/13 04:17:03;;;;;;;1.10;1.00;;;;;;;4.69;60.97;92297.69;5099905;28;20135;-79
2024/02/13 04:19:29;;;;;;;1.90;0.77;;;;;;;4.65;62.64;92300.00;5076710;28;20040;-78
2024/02/13 04:21:54;;;;;;;0.55;0.55;;;;;;;4.73;61.53;92304.72;5090266;28;20023;-78
2024/02/13 04:24:20;;;;;;;0.77;0.77;;;;;;;4.73;61.88;92306.53;5072431;28;20051;-77
2024/02/13 04:26:45;;;;;;;1.00;0.90;;;;;;;4.69;61.64;92313.25;5107264;28;20068;-77
2024/02/13 04:29:11;;;;;;;1.10;1.00;;;;;;;4.73;61.21;92312.50;5060000;28;20035;-77
2024/02/13 04:31:38;;;;;;;2.33;0.90;;;;;;;4.75;60.77;92317.41;5097397;28;20123;-77
2024/02/13 04:34:04;;;;;;;0.85;0.85;;;;;;;4.76;60.54;92317.16;5107761;28;20028;-77
2024/02/13 04:36:31;;;;;;;1.15;1.02;;;;;;;4.80;59.42;92320.03;5086658;28;20030;-77
2024/02/13 04:38:58;;;;;;;0.88;0.88;;;;;;;4.86;57.40;92320.81;5095659;28;20038;-79
2024/02/13 04:41:24;;;;;;;1.70;1.00;;;;;;;4.80;59.44;92320.81;5105550;28;20150;-79
2024/02/13 04:43:52;;;;;;;0.85;0.82;;;;;;;4.78;60.39;92329.88;5104627;28;20059;-77
2024/02/13 04:46:18;;;;;;;1.10;1.00;;;;;;;4.76;60.14;92324.94;5082444;28;20636;-78
2024/02/13 04:48:44;;;;;;;0.80;0.80;;;;;;;4.74;60.52;92329.59;5095517;28;20043;-78
2024/02/13 04:51:09;;;;;;;1.02;0.95;;;;;;;4.75;59.92;92320.81;5108351;28;20028;-78
2024/02/13 04:53:36;;;;;;;0.63;0.63;;;;;;;4.78;60.37;92327.28;5082202;28;20127;-78
2024/02/13 04:56:02;;;;;;;0.80;0.80;;;;;;;4.78;60.73;92333.25;5104038;28;20040;-79
2024/02/13 04:58:32;;;;;;;1.35;0.90;;;;;;;4.69;61.69;92342.56;5100834;28;20036;-79
2024/02/13 05:01:09;;;;;;;0.82;0.82;;;;;;;4.71;61.76;92345.69;5099622;28;20036;-78
2024/02/13 05:08:58;;;;;;;1.48;1.00;;;;;;;4.70;61.10;92327.78;5100233;28;20032;-78
2024/02/13 05:11:27;;;;;;;1.40;1.02;;;;;;;4.74;60.84;92352.94;5079981;28;20022;-78
2024/02/13 05:13:52;;;;;;;0.93;0.90;;;;;;;4.63;61.72;92356.53;5085198;28;20039;-78
2024/02/13 05:16:18;;;;;;;1.02;0.95;;;;;;;4.56;62.35;92351.56;5096958;28;20035;-78
2024/02/13 05:18:47;;;;;;;0.90;0.90;;;;;;;4.55;61.91;92354.44;5085774;28;20082;-78
2024/02/13 05:21:19;;;;;;;1.00;1.00;;;;;;;4.48;62.63;92357.25;5085297;28;20020;-78
2024/02/13 05:23:47;;;;;;;1.40;0.85;;;;;;;4.48;61.87;92359.03;5073889;28;20051;-78
2024/02/13 05:26:13;;;;;;;1.20;0.82;;;;;;;4.44;62.19;92360.59;5082451;28;20039;-78
2024/02/13 05:28:40;;;;;;;0.85;0.85;;;;;;;4.44;62.14;92363.94;5105784;28;20023;-78
2024/02/13 05:31:05;;;;;;;0.95;0.88;;;;;;;4.41;62.56;92364.44;5096211;28;20035;-79
2024/02/13 05:33:34;;;;;;;0.80;0.70;;;;;;;4.39;62.54;92369.13;5072076;28;20048;-79
2024/02/13 05:36:02;;;;;;;1.00;0.80;;;;;;;4.38;63.61;92373.50;5098846;28;20076;-78
2024/02/13 05:38:28;;;;;;;0.75;0.75;;;;;;;4.38;63.00;92370.13;5100763;28;20183;-78
2024/02/13 05:40:54;;;;;;;0.80;0.80;;;;;;;4.40;62.62;92382.84;5092995;28;20061;-80
2024/02/13 05:43:20;;;;;;;0.98;0.75;;;;;;;4.40;62.19;92393.22;5077176;28;20127;-79
2024/02/13 05:45:49;;;;;;;0.85;0.80;;;;;;;4.33;63.63;92383.06;5101129;28;20031;-77
2024/02/13 05:48:14;;;;;;;0.80;0.80;;;;;;;4.35;62.52;92381.78;5100921;28;20044;-77
2024/02/13 05:50:40;;;;;;;0.80;0.80;;;;;;;4.36;61.83;92387.75;5076324;28;20032;-78
2024/02/13 05:53:06;;;;;;;0.60;0.60;;;;;;;4.35;62.48;92397.34;5105125;28;20051;-77
2024/02/13 05:55:32;;;;;;;0.65;0.65;;;;;;;4.31;62.64;92401.44;5103986;28;20036;-77
2024/02/13 05:57:58;;;;;;;1.38;1.00;;;;;;;4.32;62.24;92400.44;5101008;28;20425;-77
2024/02/13 06:00:25;;;;;;;0.82;0.82;;;;;;;4.34;62.04;92405.34;5112539;28;20024;-78
2024/02/13 06:02:55;;;;;;;1.08;0.98;;;;;;;4.31;61.91;92405.84;5108703;28;20512;-80
2024/02/13 06:05:24;;;;;;;0.80;0.80;;;;;;;4.35;61.81;92412.09;5109568;28;20032;-78
2024/02/13 06:07:53;;;;;;;1.15;0.80;;;;;;;4.30;63.74;92414.63;5110536;28;20533;-79
2024/02/13 06:10:21;;;;;;;0.80;0.80;;;;;;;4.28;64.16;92416.69;5108890;28;20032;-80
2024/02/13 06:12:47;;;;;;;1.15;0.90;;;;;;;4.22;64.29;92423.66;5088375;28;20039;-78
2024/02/13 06:15:13;;;;;;;0.80;0.80;;;;;;;4.21;63.66;92427.31;5111487;28;20028;-76
2024/02/13 06:17:39;;;;;;;1.58;0.80;;;;;;;4.27;62.37;92438.47;5108602;28;20039;-78
2024/02/13 06:20:05;;;;;;;0.70;0.70;;;;;;;4.30;62.34;92433.59;5096922;28;20138;-79
2024/02/13 06:22:32;;;;;;;1.77;0.80;;;;;;;4.32;62.06;92436.72;5110496;28;20040;-78
2024/02/13 06:25:04;;;;;;;0.93;0.80;;;;;;;4.36;61.54;92436.97;5107888;28;20034;-79
2024/02/13 06:27:33;;;;;;;1.15;0.90;;;;;;;4.35;61.59;92438.81;5104765;28;20067;-79
2024/02/13 06:29:59;;;;;;;0.85;0.85;;;;;;;4.36;62.14;92439.56;5100711;28;20159;-79
2024/02/13 06:32:28;;;;;;;0.85;0.85;;;;;;;4.34;62.40;92447.59;5095963;28;20056;-77
2024/02/13 06:34:54;;;;;;;1.85;0.80;;;;;;;4.32;62.21;92454.84;5107862;28;20051;-77
2024/02/13 06:37:24;;;;;;;1.15;0.80;;;;;;;4.31;62.58;92453.28;5116813;28;20031;-77
2024/02/13 06:39:49;;;;;;;0.93;0.93;;;;;;;4.35;61.41;92464.72;5115135;28;20036;-78
2024/02/13 06:42:16;;;;;;;1.23;1.10;;;;;;;4.38;61.74;92474.56;5097680;28;20027;-78
2024/02/13 06:44:43;;;;;;;1.05;0.90;;;;;;;4.49;60.95;92465.06;5115838;28;20028;-78
2024/02/13 06:47:10;;;;;;;1.02;0.95;;;;;;;5.32;58.29;92472.28;5092839;28;20659;-79
2024/02/13 06:49:37;;;;;;;0.93;0.93;;;;;;;6.32;55.66;92463.41;5115434;28;20061;-79
2024/02/13 06:52:06;;;;;;;0.82;0.80;;;;;;;7.25;52.07;92475.25;5115091;28;20458;-78
2024/02/13 06:54:31;;;;;;;1.15;1.00;;;;;;;8.07;50.02;92469.66;5115854;28;20073;-80
2024/02/13 06:56:57;;;;;;;1.13;1.00;;;;;;;8.89;46.70;92474.28;5117083;28;20324;-82
2024/02/13 06:59:23;;;;;;;1.25;0.93;;;;;;;9.70;44.26;92473.66;5112426;28;20548;-78
2024/02/13 07:01:49;;;;;;;0.90;0.90;;;;;;;10.40;41.46;92484.28;5111441;28;20027;-77
2024/02/13 07:04:15;;;;;;;1.38;0.95;;;;;;;11.06;40.84;92484.28;5108122;28;20102;-79
2024/02/13 07:06:41;;;;;;;1.02;0.90;;;;;;;11.63;38.55;92481.41;5110854;28;20169;-78
2024/02/13 07:09:06;;;;;;;1.17;1.00;;;;;;;12.05;38.00;92477.69;5105044;28;20824;-78
2024/02/13 07:11:33;;;;;;;1.60;0.80;;;;;;;12.80;36.72;92474.72;5085510;28;20115;-79
2024/02/13 07:14:01;;;;;;;0.68;0.68;;;;;;;13.15;35.53;92493.31;5096617;28;20032;-80
2024/02/13 07:16:27;;;;;;;0.73;0.70;;;;;;;13.77;34.60;92488.03;5101845;28;20090;-77
2024/02/13 07:18:52;;;;;;;1.15;0.90;;;;;;;14.29;33.27;92496.03;5081177;28;20039;-77
2024/02/13 07:21:19;;;;;;;0.80;0.80;;;;;;;15.07;32.71;92497.91;5096165;28;20027;-77
2024/02/13 07:23:50;;;;;;;1.02;0.88;;;;;;;15.85;30.93;92507.47;5112286;28;20048;-79
2024/02/13 07:26:21;;;;;;;1.75;1.02;;;;;;;15.91;30.43;92508.81;5093214;28;20047;-78
2024/02/13 07:28:48;;;;;;;2.88;0.90;;;;;;;16.16;28.86;92514.28;5088567;28;20036;-77
2024/02/13 07:31:16;;;;;;;1.48;0.60;;;;;;;16.66;29.60;92505.56;5077136;28;20455;-77
2024/02/13 07:33:41;;;;;;;0.85;0.75;;;;;;;17.42;28.31;92519.53;5100998;28;20127;-78
2024/02/13 07:36:07;;;;;;;0.68;0.65;;;;;;;17.13;28.75;92528.38;5109201;28;20550;-78
2024/02/13 07:38:33;;;;;;;0.63;0.63;;;;;;;17.80;27.60;92531.75;5107571;28;20035;-79
2024/02/13 07:41:01;;;;;;;0.63;0.63;;;;;;;18.78;26.99;92528.31;5114072;28;20133;-78
2024/02/13 07:43:27;;;;;;;0.70;0.70;;;;;;;18.88;25.17;92527.84;5113245;28;20043;-77
2024/02/13 07:45:52;;;;;;;1.05;0.95;;;;;;;19.26;24.93;92532.69;5108912;28;20031;-78
2024/02/13 07:48:18;;;;;;;1.13;0.98;;;;;;;19.03;24.49;92534.34;5108487;28;20644;-78
2024/02/13 07:50:44;;;;;;;0.88;0.80;;;;;;;19.32;24.07;92536.63;5096708;28;20036;-78
2024/02/13 07:53:10;;;;;;;1.20;0.80;;;;;;;18.97;24.43;92535.66;5104508;28;20036;-78
2024/02/13 07:55:36;;;;;;;1.33;0.70;;;;;;;19.74;24.44;92535.44;5104577;28;20089;-78
2024/02/13 07:58:03;;;;;;;1.10;0.80;;;;;;;20.41;23.63;92540.81;5106060;28;20039;-78
2024/02/13 08:00:29;;;;;;;0.82;0.82;;;;;;;20.84;23.45;92536.44;5102854;28;20091;-78
2024/02/13 08:02:55;;;;;;;1.23;0.80;;;;;;;21.03;22.67;92537.59;5109142;28;20104;-78
2024/02/13 08:05:21;;;;;;;1.05;0.75;;;;;;;21.97;21.82;92538.19;5113303;28;20472;-78
2024/02/13 08:07:47;;;;;;;0.88;0.80;;;;;;;21.35;22.18;92541.66;5103874;28;20441;-77
2024/02/13 08:10:13;;;;;;;0.73;0.70;;;;;;;22.08;20.99;92546.38;5068955;28;20031;-78
2024/02/13 08:12:39;;;;;;;0.90;0.90;;;;;;;21.89;21.87;92537.31;5103754;28;20036;-78
2024/02/13 08:15:06;;;;;;;0.85;0.82;;;;;;;21.55;21.70;92547.00;5074156;28;20070;-77
2024/02/13 08:17:33;;;;;;;0.80;0.80;;;;;;;21.44;21.91;92540.72;5107539;28;20031;-78
2024/02/13 08:20:00;;;;;;;1.40;0.80;;;;;;;21.33;21.82;92546.56;5090240;28;20067;-78
2024/02/13 08:22:25;;;;;;;1.60;0.70;;;;;;;20.87;22.42;92557.03;5096948;28;20484;-77
2024/02/13 08:24:53;;;;;;;1.15;0.70;;;;;;;20.83;21.16;92561.53;5109633;28;20024;-78
2024/02/13 08:27:19;;;;;;;0.95;0.70;;;;;;;20.05;22.80;92550.63;5094286;28;20045;-77
2024/02/13 08:29:44;;;;;;;0.82;0.60;;;;;;;18.84;24.42;92558.78;5093164;28;20714;-76
2024/02/13 08:32:10;;;;;;;0.77;0.60;;;;;;;18.52;24.72;92564.66;5110981;28;20380;-79
2024/02/13 08:34:36;;;;;;;0.77;0.60;;;;;;;18.26;24.46;92558.94;5087937;28;20095;-78
2024/02/13 08:37:02;;;;;;;0.85;0.47;;;;;;;17.50;24.84;92563.69;5107110;28;20031;-79
2024/02/13 08:39:28;;;;;;;1.27;0.50;;;;;;;16.76;26.59;92555.41;5095173;28;20032;-78
2024/02/13 08:41:54;;;;;;;0.70;0.65;;;;;;;16.83;27.16;92557.56;5070497;28;20047;-79
2024/02/13 08:44:21;;;;;;;0.88;0.80;;;;;;;16.77;27.22;92556.94;5095850;28;20019;-78
2024/02/13 08:46:47;;;;;;;1.40;0.80;;;;;;;16.50;26.54;92555.56;5082366;28;20050;-79
2024/02/13 08:49:13;;;;;;;0.73;0.70;;;;;;;16.52;27.98;92573.75;5109581;28;20102;-76
2024/02/13 08:51:38;;;;;;;0.77;0.75;;;;;;;16.88;25.87;92569.81;5101233;28;20039;-79
2024/02/13 08:54:04;;;;;;;0.57;0.57;;;;;;;17.21;25.93;92567.22;5090176;28;20076;-79
2024/02/13 08:56:30;;;;;;;0.82;0.82;;;;;;;17.11;26.76;92570.25;5102182;28;20036;-78
2024/02/13 08:58:56;;;;;;;0.70;0.70;;;;;;;17.03;26.56;92571.88;5105610;28;20101;-78
2024/02/13 09:01:22;;;;;;;1.08;0.80;;;;;;;17.25;26.22;92568.13;5108958;28;20032;-79
2024/02/13 09:03:48;;;;;;;0.85;0.70;;;;;;;16.70;25.77;92569.13;5108933;28;20027;-77
2024/02/13 09:06:16;;;;;;;0.95;0.68;;;;;;;16.24;25.76;92571.59;5104646;28;20059;-77
2024/02/13 09:08:43;;;;;;;0.60;0.60;;;;;;;16.40;26.64;92577.84;5096664;28;20130;-77
2024/02/13 09:11:14;;;;;;;1.05;0.85;;;;;;;16.07;26.95;92569.78;5102159;28;20051;-77
2024/02/13 09:13:40;;;;;;;0.85;0.80;;;;;;;16.09;26.82;92582.69;5070111;28;20051;-79
2024/02/13 09:16:10;;;;;;;2.03;0.70;;;;;;;16.29;26.54;92581.19;5109863;28;20032;-87
2024/02/13 09:18:38;;;;;;;0.65;0.65;;;;;;;16.36;26.51;92574.31;5111870;28;20372;-78
2024/02/13 09:21:06;;;;;;;2.75;1.00;;;;;;;15.80;27.67;92581.53;5105749;28;20137;-78
2024/02/13 09:23:33;;;;;;;0.80;0.80;;;;;;;15.99;26.65;92571.38;5101319;28;20039;-79
2024/02/13 09:25:59;;;;;;;2.40;0.70;;;;;;;16.00;27.15;92572.91;5074691;28;20114;-78
2024/02/13 09:28:28;;;;;;;0.77;0.57;;;;;;;15.70;26.59;92574.72;5105762;28;20071;-78
2024/02/13 09:30:53;;;;;;;0.63;0.63;;;;;;;15.79;26.88;92569.44;5107558;28;20238;-78
2024/02/13 09:33:22;;;;;;;1.30;1.20;;;;;;;15.99;26.69;92558.19;5094268;28;20498;-82
2024/02/13 09:35:50;;;;;;;1.55;0.90;;;;;;;16.35;25.79;92569.34;5110178;28;20031;-80
2024/02/13 09:38:16;;;;;;;0.95;0.80;;;;;;;16.98;25.10;92569.44;5113034;28;20038;-77
2024/02/13 09:40:42;;;;;;;1.00;0.85;;;;;;;16.92;25.21;92573.38;5091843;28;20027;-76
2024/02/13 09:43:08;;;;;;;0.82;0.80;;;;;;;17.10;24.75;92574.00;5111238;28;20042;-77
2024/02/13 09:45:39;;;;;;;0.93;0.70;;;;;;;16.37;25.01;92565.28;5092947;28;20047;-76
2024/02/13 09:48:11;;;;;;;1.05;0.75;;;;;;;17.24;23.79;92567.31;5111799;28;20456;-78
2024/02/13 09:50:42;;;;;;;1.95;0.90;;;;;;;17.44;25.25;92565.75;5092854;28;20046;-76
2024/02/13 09:53:34;;;;;;;3.17;1.00;;;;;;;17.73;25.26;92577.28;5092637;28;20517;-76
2024/02/13 09:56:00;;;;;;;0.70;0.70;;;;;;;17.78;23.45;92577.06;5110943;28;20024;-77
2024/02/13 09:58:26;;;;;;;0.70;0.70;;;;;;;17.00;24.80;92577.78;5112397;28;20439;-78
2024/02/13 10:00:53;;;;;;;0.60;0.60;;;;;;;16.67;25.41;92567.91;5111057;28;20027;-78
2024/02/13 10:03:19;;;;;;;0.88;0.60;;;;;;;17.09;24.98;92591.75;5111035;28;20073;-77
2024/02/13 10:05:45;;;;;;;0.80;0.80;;;;;;;16.81;25.32;92588.84;5112728;28;20047;-79
2024/02/13 10:08:12;;;;;;;0.65;0.65;;;;;;;16.77;24.55;92593.19;5106891;28;20383;-77
2024/02/13 10:10:38;;;;;;;1.05;0.70;;;;;;;17.17;24.47;92590.13;5112488;28;20020;-77
2024/02/13 10:13:05;;;;;;;1.63;0.80;;;;;;;16.71;24.81;92589.97;5090124;28;20028;-78
2024/02/13 10:15:44;;;;;;;1.88;0.70;;;;;;;17.27;24.48;92585.22;5111881;28;20043;-79
2024/02/13 10:18:13;;;;;;;0.70;0.70;;;;;;;17.25;24.31;92590.06;5088415;28;20080;-78
2024/02/13 10:20:43;;;;;;;1.25;0.90;;;;;;;17.12;23.74;92592.97;5120017;28;20023;-77
2024/02/13 10:23:14;;;;;;;3.03;1.00;;;;;;;17.37;24.93;92591.19;5102999;28;20051;-79
2024/02/13 10:25:42;;;;;;;0.80;0.70;;;;;;;17.73;24.06;92577.28;5120550;28;20039;-77
2024/02/13 10:28:11;;;;;;;0.70;0.70;;;;;;;17.41;23.86;92587.56;5102696;28;20043;-76
2024/02/13 10:30:38;;;;;;;0.77;0.70;;;;;;;17.89;23.39;92588.81;5129555;28;20044;-75
2024/02/13 10:33:06;;;;;;;0.88;0.80;;;;;;;17.91;24.06;92580.56;5100470;28;20051;-75
2024/02/13 10:35:32;;;;;;;1.00;0.90;;;;;;;18.06;23.29;92582.56;5109710;28;20563;-75
2024/02/13 10:37:59;;;;;;;0.50;0.50;;;;;;;18.07;22.75;92578.81;5104024;28;20032;-75
2024/02/13 10:40:27;;;;;;;0.60;0.60;;;;;;;18.45;22.39;92600.78;5115991;28;20032;-77
2024/02/13 10:43:03;;;;;;;0.82;0.73;;;;;;;18.07;22.56;92592.03;5121570;28;20467;-76
2024/02/13 10:45:30;;;;;;;0.70;0.70;;;;;;;18.41;22.31;92579.47;5114989;28;20070;-76
2024/02/13 10:48:09;;;;;;;0.60;0.60;;;;;;;18.34;21.84;92587.22;5109287;28;20032;-77
2024/02/13 10:50:36;;;;;;;2.15;0.80;;;;;;;18.04;22.33;92586.66;5113318;28;20114;-76
2024/02/13 10:53:03;;;;;;;0.70;0.70;;;;;;;18.06;22.84;92590.50;5115610;28;20027;-77
2024/02/13 10:55:33;;;;;;;0.85;0.75;;;;;;;17.90;22.60;92594.91;5112232;28;20510;-77
2024/02/13 10:58:00;;;;;;;0.70;0.70;;;;;;;17.96;22.23;92596.22;5099971;28;20043;-76
2024/02/13 11:00:28;;;;;;;0.65;0.65;;;;;;;17.76;20.91;92591.75;5105348;28;20495;-77
2024/02/13 11:02:55;;;;;;;0.70;0.70;;;;;;;17.62;22.00;92584.88;5111787;28;20514;-77
2024/02/13 11:05:26;;;;;;;0.65;0.65;;;;;;;17.62;23.19;92594.69;5105897;28;20430;-74
2024/02/13 11:07:57;;;;;;;0.90;0.75;;;;;;;17.56;22.43;92594.13;5074053;28;20064;-76
2024/02/13 11:10:34;;;;;;;0.93;0.82;;;;;;;17.17;22.57;92590.88;5081992;28;20032;-75
2024/02/13 11:13:05;;;;;;;0.70;0.70;;;;;;;17.41;23.56;92592.09;5092854;28;20096;-75
2024/02/13 11:15:33;;;;;;;0.80;0.80;;;;;;;17.44;21.97;92592.19;5106262;28;20024;-74
2024/02/13 11:18:04;;;;;;;2.40;0.70;;;;;;;17.43;23.34;92584.59;5104694;28;20088;-75
2024/02/13 11:20:37;;;;;;;0.88;0.70;;;;;;;17.23;22.36;92594.88;5104045;28;20027;-75
2024/02/13 11:23:11;;;;;;;0.80;0.80;;;;;;;17.66;20.69;92591.06;5102649;28;20023;-76
2024/02/13 11:25:39;;;;;;;0.60;0.60;;;;;;;17.11;21.43;92586.13;5095483;28;20127;-75
2024/02/13 11:28:06;;;;;;;1.60;1.00;;;;;;;17.07;20.71;92596.59;5108462;28;20016;-76
2024/02/13 11:30:37;;;;;;;0.70;0.70;;;;;;;16.57;22.04;92592.06;5092116;28;20051;-75
2024/02/13 11:33:08;;;;;;;0.60;0.60;;;;;;;16.35;23.47;92593.91;5102879;28;20502;-76
2024/02/13 11:35:52;;;;;;;0.80;0.80;;;;;;;16.15;24.40;92587.47;5099862;28;20038;-77
2024/02/13 11:38:19;;;;;;;0.90;0.90;;;;;;;16.40;26.25;92585.00;5100272;28;20036;-76
2024/02/13 11:40:54;;;;;;;0.88;0.77;;;;;;;16.47;24.38;92587.16;5104107;28;20039;-75